Weather at San Juan Airport [CLOSED]

Public forecast

Using degrees Celsius for public forecast. Weather courtesy of forecast.io.

Closest aviation weather report (METAR) to San Juan Airport

Closest report is Maria Montez International Airport, 35.5 nm (65.8 km) S. Retrieved 2021/12/05 17:00 UTC (31 minutes ago):

MDBH 051700Z 13011KT 9999 FEW022CB FEW022 SCT300 31/24 Q1016 CB/SE

Closest aviation forecast (TAF) to San Juan Airport

Forecast is more than 6 hours old.

Closest forecast is Maria Montez International Airport, 35.5 nm (65.8 km) S. Retrieved 2021/12/05 06:08 UTC (11 hours ago):

TAF MDBH 050400Z 0506/0606 13010KT 9999 FEW018CB SCT018 SCT080 BECMG 0508/0510 27006KT